Time;durP1;ratioP1;P1;durP2;ratioP2;P2;SDS_P1;SDS_P2;PMS_P1;PMS_P2;Temp;Humidity;BMP_temperature;BMP_pressure;BME280_temperature;BME280_humidity;BME280_pressure;Samples;Min_cycle;Max_cycle;Signal;HPM_P1;HPM_P2
2022/09/15 00:00:24;;;;;;;8.68;4.78;;;17.70;99.90;;;16.99;100.00;96382.47;5031543;28;20423;-74
2022/09/15 00:02:51;;;;;;;8.85;4.35;;;17.70;99.90;;;16.86;100.00;96379.97;5031129;28;20411;-73
2022/09/15 00:05:17;;;;;;;7.03;4.13;;;17.60;99.90;;;16.98;100.00;96380.91;5031325;28;20415;-73
2022/09/15 00:07:43;;;;;;;6.35;4.40;;;17.70;99.90;;;16.98;100.00;96375.56;5031133;28;20435;-73
2022/09/15 00:10:10;;;;;;;9.20;4.90;;;17.70;99.90;;;17.02;100.00;96375.72;5031053;28;20411;-74
2022/09/15 00:12:36;;;;;;;6.40;4.45;;;17.80;99.90;;;17.02;100.00;96362.34;5031341;28;20620;-74
2022/09/15 00:15:03;;;;;;;6.53;4.53;;;17.80;99.90;;;17.11;100.00;96367.69;5030864;28;20477;-73
2022/09/15 00:17:30;;;;;;;10.02;4.50;;;17.80;99.90;;;17.17;100.00;96371.75;5013574;28;20820;-73
2022/09/15 00:19:57;;;;;;;6.40;4.10;;;17.90;99.90;;;17.13;100.00;96363.59;5031424;28;20403;-74
2022/09/15 00:22:24;;;;;;;10.25;4.28;;;17.90;99.90;;;17.15;100.00;96372.06;5031355;28;20411;-73
2022/09/15 00:24:50;;;;;;;10.18;4.40;;;17.90;99.90;;;17.20;100.00;96363.91;5031102;28;20486;-73
2022/09/15 00:27:16;;;;;;;5.53;3.70;;;17.90;99.90;;;17.17;100.00;96356.50;5031310;28;20486;-73
2022/09/15 00:29:42;;;;;;;5.80;3.80;;;17.90;99.90;;;17.14;100.00;96365.16;5031445;28;20494;-73
2022/09/15 00:32:09;;;;;;;5.30;3.65;;;17.90;99.90;;;17.12;100.00;96355.88;5029791;28;20916;-73
2022/09/15 00:34:35;;;;;;;6.00;4.05;;;17.80;99.90;;;17.17;100.00;96353.81;5011008;28;20408;-73
2022/09/15 00:37:02;;;;;;;5.38;4.32;;;17.90;99.90;;;17.19;100.00;96353.50;5011325;28;20949;-73
2022/09/15 00:39:28;;;;;;;7.63;3.63;;;17.90;99.90;;;17.14;100.00;96346.44;5011480;28;20420;-74
2022/09/15 00:41:54;;;;;;;5.85;3.70;;;17.90;99.90;;;17.14;100.00;96351.00;5011391;28;20432;-73
2022/09/15 00:44:52;;;;;;;4.45;3.67;;;17.90;99.90;;;17.14;100.00;96351.78;5010931;28;20408;-73
2022/09/15 00:47:20;;;;;;;4.45;3.63;;;17.80;99.90;;;17.13;100.00;96357.47;5021953;28;20919;-73
2022/09/15 00:49:53;;;;;;;5.40;3.90;;;17.80;99.90;;;17.15;100.00;96358.69;5030511;28;20415;-73
2022/09/15 00:52:26;;;;;;;6.07;3.72;;;17.90;99.90;;;17.14;100.00;96354.44;5030514;28;20406;-73
2022/09/15 00:54:58;;;;;;;5.93;3.70;;;17.90;99.90;;;17.08;100.00;96346.91;5028867;28;20897;-73
2022/09/15 00:57:30;;;;;;;5.25;3.55;;;17.80;99.90;;;17.11;100.00;96344.41;5030478;28;20423;-73
2022/09/15 01:00:01;;;;;;;5.82;3.80;;;17.90;99.90;;;17.16;100.00;96348.78;5030419;28;20415;-73
2022/09/15 01:02:31;;;;;;;6.38;3.65;;;17.80;99.90;;;17.20;100.00;96347.06;5030001;28;21113;-73
2022/09/15 01:04:59;;;;;;;4.80;3.20;;;17.90;99.90;;;17.14;100.00;96349.09;5029851;28;20411;-73
2022/09/15 01:07:34;;;;;;;4.93;3.03;;;17.90;99.90;;;17.03;100.00;96356.69;5029755;28;21159;-73
2022/09/15 01:10:06;;;;;;;6.28;3.03;;;17.80;99.90;;;17.18;100.00;96351.94;5029860;28;20399;-74
2022/09/15 01:12:32;;;;;;;6.65;3.28;;;17.80;99.90;;;17.20;100.00;96355.09;5029826;28;20418;-73
2022/09/15 01:15:00;;;;;;;4.90;3.22;;;17.90;99.90;;;17.13;100.00;96354.78;5029912;28;20772;-74
2022/09/15 01:17:41;;;;;;;7.57;3.30;;;17.90;99.90;;;17.02;100.00;96354.31;5029611;28;20407;-73
2022/09/15 01:20:42;;;;;;;4.70;3.22;;;17.80;99.90;;;17.08;100.00;96363.75;5029938;28;20426;-73
2022/09/15 01:24:01;;;;;;;6.47;3.28;;;17.80;99.90;;;16.98;100.00;96356.84;5015930;28;20403;-73
2022/09/15 01:26:57;;;;;;;8.07;3.17;;;17.70;99.90;;;17.00;100.00;96343.94;4989852;28;20463;-73
2022/09/15 01:30:11;;;;;;;4.90;2.90;;;17.70;99.90;;;16.98;100.00;96332.78;5029784;28;20457;-73
2022/09/15 01:33:05;;;;;;;5.85;3.40;;;17.70;99.90;;;16.98;100.00;96332.78;5029682;28;20888;-73
2022/09/15 01:35:49;;;;;;;4.47;3.20;;;17.70;99.90;;;17.06;100.00;96335.78;5029663;28;20897;-74
2022/09/15 01:38:27;;;;;;;7.13;3.33;;;17.80;99.90;;;17.08;100.00;96328.97;5029705;28;20461;-73
2022/09/15 01:41:00;;;;;;;5.57;3.20;;;17.80;99.90;;;17.06;100.00;96338.44;5025974;28;20415;-73
2022/09/15 01:43:28;;;;;;;5.47;3.22;;;17.80;99.90;;;17.05;100.00;96329.63;5029469;28;20449;-73
2022/09/15 01:45:58;;;;;;;5.40;2.90;;;17.80;99.90;;;16.92;100.00;96328.69;5029981;28;20418;-74
2022/09/15 01:48:26;;;;;;;5.25;2.88;;;17.70;99.90;;;16.87;100.00;96331.53;5019448;28;20760;-74
2022/09/15 01:50:57;;;;;;;8.13;3.22;;;17.60;99.90;;;16.90;100.00;96324.78;5029752;28;20406;-73
2022/09/15 01:53:23;;;;;;;5.57;2.90;;;17.60;99.90;;;16.98;100.00;96324.78;5029402;28;20465;-73
2022/09/15 01:55:55;;;;;;;6.93;2.83;;;17.70;99.90;;;16.96;100.00;96321.63;5029726;28;20437;-73
2022/09/15 01:58:21;;;;;;;5.50;3.17;;;17.70;99.90;;;17.01;100.00;96326.00;5029983;28;20494;-74
2022/09/15 02:00:55;;;;;;;4.32;2.70;;;17.70;99.90;;;16.88;100.00;96327.78;5029560;28;20407;-74
2022/09/15 02:03:30;;;;;;;5.85;3.10;;;17.60;99.90;;;16.91;100.00;96321.00;5011747;28;20437;-73
2022/09/15 02:06:03;;;;;;;4.77;2.67;;;17.60;99.90;;;16.87;100.00;96318.19;5014058;28;20399;-74
2022/09/15 02:08:38;;;;;;;4.28;2.70;;;17.60;99.90;;;16.83;100.00;96327.94;5087630;22;20438;-73
2022/09/15 02:11:14;;;;;;;6.80;3.07;;;17.60;99.90;;;16.88;100.00;96325.09;5081310;28;20477;-73
2022/09/15 02:13:49;;;;;;;4.47;2.92;;;17.60;99.90;;;16.85;100.00;96314.25;5088586;28;20485;-73
2022/09/15 02:16:19;;;;;;;4.18;2.80;;;17.60;99.90;;;16.86;100.00;96319.28;5081022;28;20415;-73
2022/09/15 02:19:01;;;;;;;5.10;2.65;;;17.60;99.90;;;16.77;100.00;96323.06;5081672;28;20386;-73
2022/09/15 02:21:35;;;;;;;4.50;2.70;;;17.50;99.90;;;16.84;100.00;96321.47;5090181;28;20489;-74
2022/09/15 02:24:09;;;;;;;5.38;2.53;;;17.60;99.90;;;16.97;100.00;96320.53;5093392;28;20451;-73
2022/09/15 02:26:39;;;;;;;5.88;2.72;;;17.70;99.90;;;16.97;100.00;96331.22;5093829;28;20798;-73
2022/09/15 02:29:09;;;;;;;4.35;2.47;;;17.70;99.90;;;16.98;100.00;96342.69;5109511;28;20871;-73
2022/09/15 02:31:38;;;;;;;5.97;2.85;;;17.70;99.90;;;16.99;100.00;96337.00;5092534;28;20402;-74
2022/09/15 02:34:14;;;;;;;4.35;2.25;;;17.70;99.90;;;16.96;100.00;96339.56;5093227;28;20512;-73
2022/09/15 02:36:41;;;;;;;3.83;2.40;;;17.70;99.90;;;16.93;100.00;96334.81;5093536;28;20891;-73
2022/09/15 02:39:12;;;;;;;3.75;2.53;;;17.70;99.90;;;16.90;100.00;96328.25;5093592;28;20401;-73
2022/09/15 02:41:39;;;;;;;3.95;2.38;;;17.60;99.90;;;16.84;100.00;96326.81;5093540;28;20887;-73
2022/09/15 02:44:08;;;;;;;6.03;2.70;;;17.60;99.90;;;16.87;100.00;96328.09;5095675;28;20398;-73
2022/09/15 02:46:34;;;;;;;5.68;2.40;;;17.60;99.90;;;16.84;100.00;96315.38;5087494;28;20402;-73
2022/09/15 02:49:00;;;;;;;3.40;2.30;;;17.60;99.90;;;16.87;100.00;96317.38;5102197;28;20479;-73
2022/09/15 02:51:28;;;;;;;3.60;2.40;;;17.60;99.90;;;16.91;100.00;96313.78;5099981;28;20429;-74
2022/09/15 02:53:54;;;;;;;4.25;2.60;;;17.60;99.90;;;16.92;100.00;96309.19;5101687;28;20406;-74
2022/09/15 02:56:21;;;;;;;4.87;2.57;;;17.60;99.90;;;16.95;100.00;96305.91;5093167;28;21057;-73
2022/09/15 02:58:47;;;;;;;6.80;2.40;;;17.60;99.90;;;16.90;100.00;96309.53;5094292;28;20466;-73
2022/09/15 03:01:14;;;;;;;4.45;2.28;;;17.60;99.90;;;16.82;100.00;96293.50;5113160;28;20404;-73
2022/09/15 03:03:41;;;;;;;4.93;2.30;;;17.60;99.90;;;16.75;100.00;96311.91;5103252;28;20441;-74
2022/09/15 03:06:15;;;;;;;5.43;2.38;;;17.50;99.90;;;16.76;100.00;96322.28;5106932;28;20392;-74
2022/09/15 03:08:46;;;;;;;4.75;2.10;;;17.40;99.90;;;16.71;100.00;96314.41;5095938;28;20437;-74
2022/09/15 03:11:12;;;;;;;3.60;2.35;;;17.40;99.90;;;16.72;100.00;96310.66;5085498;28;20536;-74
2022/09/15 03:13:38;;;;;;;5.70;2.53;;;17.40;99.90;;;16.80;100.00;96314.41;5107743;28;20901;-74
2022/09/15 03:16:09;;;;;;;4.80;2.30;;;17.50;99.90;;;16.80;100.00;96314.41;5111146;28;20414;-74
2022/09/15 03:18:35;;;;;;;3.92;2.75;;;17.60;99.90;;;16.83;100.00;96301.22;5112113;28;20412;-74
2022/09/15 03:21:02;;;;;;;5.85;3.15;;;17.60;99.90;;;16.79;100.00;96304.81;5092196;28;20815;-74
2022/09/15 03:23:28;;;;;;;2.78;2.40;;;17.50;99.90;;;16.76;100.00;96306.25;5102096;28;20404;-74
2022/09/15 03:25:58;;;;;;;3.63;2.50;;;17.50;99.90;;;16.77;100.00;96309.69;5112333;28;20408;-73
2022/09/15 03:28:24;;;;;;;5.07;2.10;;;17.50;99.90;;;16.63;100.00;96307.97;5112585;28;20404;-73
2022/09/15 03:30:50;;;;;;;5.50;2.03;;;17.40;99.90;;;16.60;100.00;96311.31;5097886;28;20419;-74
2022/09/15 03:33:15;;;;;;;3.72;2.20;;;17.30;99.90;;;16.64;100.00;96312.22;5110270;28;20462;-73
2022/09/15 03:35:44;;;;;;;3.42;2.40;;;17.40;99.90;;;16.67;100.00;96308.16;5098073;28;20417;-73
2022/09/15 03:38:09;;;;;;;7.18;2.25;;;17.40;99.90;;;16.57;100.00;96308.44;5098190;28;20405;-73
2022/09/15 03:40:36;;;;;;;3.87;2.10;;;17.40;99.90;;;16.66;100.00;96313.81;5095289;28;20884;-73
2022/09/15 03:43:03;;;;;;;4.72;2.10;;;17.40;99.90;;;16.56;100.00;96307.63;5111669;28;20467;-73
2022/09/15 03:45:29;;;;;;;4.78;2.00;;;17.30;99.90;;;16.57;100.00;96311.88;5110910;28;20404;-73
2022/09/15 03:47:55;;;;;;;3.00;2.15;;;17.30;99.90;;;16.46;100.00;96310.66;5110133;28;20407;-73
2022/09/15 03:50:21;;;;;;;6.50;2.10;;;17.20;99.90;;;16.35;100.00;96301.38;5099308;28;20953;-73
2022/09/15 03:52:47;;;;;;;6.00;2.20;;;17.10;99.90;;;16.42;100.00;96309.69;5092972;28;20478;-73
2022/09/15 03:55:13;;;;;;;6.45;2.70;;;17.20;99.90;;;16.46;100.00;96304.53;5091319;28;20493;-73
2022/09/15 03:57:39;;;;;;;4.18;2.13;;;17.20;99.90;;;16.44;100.00;96309.38;5091323;28;20493;-72
2022/09/15 04:00:08;;;;;;;4.30;2.22;;;17.20;99.90;;;16.45;100.00;96311.75;5086794;28;20435;-73
2022/09/15 04:02:34;;;;;;;6.75;2.20;;;17.20;99.90;;;16.47;100.00;96314.06;5087945;28;20410;-73
2022/09/15 04:05:01;;;;;;;4.95;2.40;;;17.20;99.90;;;16.45;100.00;96305.63;5082569;28;20418;-73
2022/09/15 04:07:27;;;;;;;3.40;2.30;;;17.30;99.90;;;16.45;100.00;96302.94;5089012;28;20498;-74
2022/09/15 04:09:53;;;;;;;3.87;2.13;;;17.20;99.90;;;16.37;100.00;96301.06;5091991;28;20829;-73
2022/09/15 04:12:19;;;;;;;7.43;2.60;;;17.20;99.90;;;16.38;100.00;96314.09;5092431;28;20434;-72
2022/09/15 04:14:45;;;;;;;7.15;2.30;;;17.20;99.90;;;16.43;100.00;96305.13;5093082;28;20787;-73
2022/09/15 04:17:14;;;;;;;4.53;2.33;;;17.20;99.90;;;16.48;100.00;96302.28;5090937;28;20965;-73
2022/09/15 04:19:40;;;;;;;4.22;2.30;;;17.20;99.90;;;16.45;100.00;96303.72;5091203;28;20960;-73
2022/09/15 04:22:06;;;;;;;5.50;2.33;;;17.20;99.90;;;16.48;100.00;96300.41;5091043;28;20490;-73
2022/09/15 04:24:32;;;;;;;4.20;2.60;;;17.30;99.90;;;16.51;100.00;96307.03;5090484;28;20911;-73
2022/09/15 04:26:58;;;;;;;4.80;2.08;;;17.30;99.90;;;16.47;100.00;96312.19;5090912;28;20386;-73
2022/09/15 04:29:26;;;;;;;4.90;2.22;;;17.30;99.90;;;16.57;100.00;96303.88;5090733;28;20872;-72
2022/09/15 04:31:52;;;;;;;5.10;2.40;;;17.30;99.90;;;16.57;100.00;96311.88;5090766;28;20402;-73
2022/09/15 04:34:19;;;;;;;3.40;2.20;;;17.30;99.90;;;16.52;100.00;96304.03;5090428;28;20401;-72
2022/09/15 04:36:46;;;;;;;4.43;2.38;;;17.30;99.90;;;16.63;100.00;96307.19;5090769;28;20505;-73
2022/09/15 04:39:12;;;;;;;5.28;2.28;;;17.30;99.90;;;16.65;100.00;96302.31;5090942;28;20401;-72
2022/09/15 04:41:38;;;;;;;4.80;2.00;;;17.30;99.90;;;16.58;100.00;96307.34;5092264;28;20402;-72
2022/09/15 04:44:04;;;;;;;3.25;2.17;;;17.30;99.90;;;16.49;100.00;96296.66;5094177;28;20410;-72
2022/09/15 04:46:31;;;;;;;2.73;1.90;;;17.30;99.90;;;16.51;100.00;96301.69;5084623;28;20506;-71
2022/09/15 04:48:56;;;;;;;2.60;2.10;;;17.30;99.90;;;16.43;100.00;96303.25;5096667;28;20413;-72
2022/09/15 04:51:24;;;;;;;4.05;2.20;;;17.20;99.90;;;16.41;100.00;96305.44;5093841;28;20420;-72
2022/09/15 04:53:50;;;;;;;5.40;2.63;;;17.20;99.90;;;16.47;100.00;96304.19;5094359;28;20406;-73
2022/09/15 04:56:19;;;;;;;4.28;2.38;;;17.20;99.90;;;16.46;100.00;96307.19;5091453;28;20817;-73
2022/09/15 04:58:48;;;;;;;3.03;2.00;;;17.20;99.90;;;16.40;100.00;96311.88;5095754;28;20406;-74
2022/09/15 05:01:16;;;;;;;6.32;2.38;;;17.10;99.90;;;16.40;100.00;96308.41;5095864;28;20403;-74
2022/09/15 05:03:43;;;;;;;4.22;2.50;;;17.10;99.90;;;16.39;100.00;96312.22;5109275;28;20763;-73
2022/09/15 05:06:12;;;;;;;6.20;2.28;;;17.20;99.90;;;16.44;100.00;96309.38;5106487;28;20401;-73
2022/09/15 05:08:39;;;;;;;4.97;2.20;;;17.20;99.90;;;16.40;100.00;96314.56;5102874;28;20473;-73
2022/09/15 05:11:08;;;;;;;3.88;2.22;;;17.10;99.90;;;16.47;100.00;96319.41;5091410;28;20819;-72
2022/09/15 05:13:35;;;;;;;5.13;2.30;;;17.20;99.90;;;16.48;100.00;96321.00;5103806;28;20416;-73
2022/09/15 05:16:06;;;;;;;5.10;2.38;;;17.20;99.90;;;16.47;100.00;96325.56;5110230;28;20405;-73
2022/09/15 05:18:32;;;;;;;4.90;2.40;;;17.20;99.90;;;16.47;100.00;96325.56;5110824;28;20450;-73
2022/09/15 05:21:00;;;;;;;4.20;2.30;;;17.30;99.90;;;16.49;100.00;96326.03;5105739;28;20950;-74
2022/09/15 05:23:26;;;;;;;6.00;2.40;;;17.30;99.90;;;16.58;100.00;96324.16;5080174;28;20479;-74
2022/09/15 05:25:58;;;;;;;4.78;2.40;;;17.30;99.90;;;16.61;100.00;96328.13;5090058;28;20390;-74
2022/09/15 05:28:25;;;;;;;5.57;2.60;;;17.30;99.90;;;16.53;100.00;96326.19;5090234;28;20454;-74
2022/09/15 05:30:51;;;;;;;4.75;2.50;;;17.30;99.90;;;16.58;100.00;96329.50;5090331;28;20404;-73
2022/09/15 05:33:18;;;;;;;5.13;2.55;;;17.30;99.90;;;16.55;100.00;96332.78;5089757;28;20425;-73
2022/09/15 05:35:50;;;;;;;5.88;2.33;;;17.30;99.90;;;16.57;100.00;96333.25;5085215;28;20792;-73
2022/09/15 05:38:16;;;;;;;5.70;2.30;;;17.30;99.90;;;16.59;100.00;96336.41;5079066;28;20892;-73
2022/09/15 05:40:42;;;;;;;5.53;2.20;;;17.30;99.90;;;16.53;100.00;96329.66;5088345;28;20759;-72
2022/09/15 05:43:10;;;;;;;4.47;2.55;;;17.30;99.90;;;16.53;100.00;96329.66;5087507;28;20410;-72
2022/09/15 05:45:36;;;;;;;3.43;2.00;;;17.30;99.90;;;16.52;100.00;96335.31;5089574;28;20983;-73
2022/09/15 05:48:02;;;;;;;4.60;2.30;;;17.30;99.90;;;16.55;100.00;96340.78;5090233;28;20495;-73
2022/09/15 05:50:29;;;;;;;4.35;2.30;;;17.30;99.90;;;16.60;100.00;96345.22;5090366;28;20451;-73
2022/09/15 05:52:55;;;;;;;4.00;2.10;;;17.30;99.90;;;16.52;100.00;96338.78;5081400;28;20821;-73
2022/09/15 05:55:21;;;;;;;5.00;2.25;;;17.30;99.90;;;16.52;100.00;96340.66;5085246;28;20442;-73
2022/09/15 05:57:47;;;;;;;3.58;2.15;;;17.30;99.90;;;16.55;100.00;96337.34;5085303;28;20466;-73
2022/09/15 06:00:15;;;;;;;2.27;2.00;;;17.30;99.90;;;16.57;100.00;96333.25;5088942;28;20464;-73
2022/09/15 06:02:41;;;;;;;3.80;2.08;;;17.30;99.90;;;16.61;100.00;96336.91;5101218;28;20913;-73
2022/09/15 06:05:08;;;;;;;4.20;1.88;;;17.30;99.90;;;16.68;100.00;96331.09;5102019;28;20400;-73
2022/09/15 06:07:35;;;;;;;3.55;2.15;;;17.40;99.90;;;16.67;100.00;96342.09;5104314;28;20954;-72
2022/09/15 06:10:01;;;;;;;4.13;2.00;;;17.40;99.90;;;16.74;100.00;96337.84;5102677;28;20443;-73
2022/09/15 06:12:26;;;;;;;4.85;2.00;;;17.40;99.90;;;16.74;100.00;96339.72;5094591;28;20409;-73
2022/09/15 06:14:52;;;;;;;4.60;1.92;;;17.50;99.90;;;16.70;100.00;96346.78;5102484;28;20427;-73
2022/09/15 06:17:21;;;;;;;5.22;1.70;;;17.40;99.90;;;16.55;100.00;96338.13;5087199;28;20453;-73
2022/09/15 06:19:47;;;;;;;4.90;1.80;;;17.30;99.90;;;16.61;100.00;96342.22;5089280;28;20421;-73
2022/09/15 06:22:14;;;;;;;5.20;1.65;;;17.40;99.90;;;16.62;100.00;96343.03;5092169;28;20496;-73
2022/09/15 06:24:39;;;;;;;4.47;1.70;;;17.30;99.90;;;16.74;100.00;96342.41;5092029;28;20413;-72
2022/09/15 06:27:06;;;;;;;5.70;1.85;;;17.40;99.90;;;16.78;100.00;96346.00;5093844;28;20485;-74
2022/09/15 06:29:32;;;;;;;2.13;1.45;;;17.50;99.90;;;16.65;100.00;96353.09;5098036;28;20447;-74
2022/09/15 06:32:01;;;;;;;2.20;1.60;;;17.40;99.90;;;16.67;100.00;96358.13;5093475;28;20635;-73
2022/09/15 06:34:28;;;;;;;3.47;1.88;;;17.40;99.90;;;16.73;100.00;96354.19;5093264;28;20489;-74
2022/09/15 06:36:54;;;;;;;4.30;1.63;;;17.40;99.90;;;16.73;100.00;96363.00;5092463;28;20412;-72
2022/09/15 06:39:21;;;;;;;5.65;2.08;;;17.40;99.90;;;16.62;100.00;96364.41;5100234;28;20397;-73
2022/09/15 06:41:46;;;;;;;3.20;1.90;;;17.40;99.90;;;16.51;100.00;96363.91;5092221;28;20410;-73
2022/09/15 06:44:12;;;;;;;4.57;1.92;;;17.30;99.90;;;16.51;100.00;96371.94;5092052;28;21122;-72
2022/09/15 06:46:38;;;;;;;4.30;2.13;;;17.30;99.90;;;16.41;100.00;96364.22;5093119;28;20484;-73
2022/09/15 06:49:04;;;;;;;6.28;2.22;;;17.30;99.90;;;16.34;100.00;96373.78;5093440;28;20943;-73
2022/09/15 06:51:34;;;;;;;26.77;2.70;;;17.10;99.90;;;16.32;100.00;96371.41;5093441;28;20523;-72
2022/09/15 06:54:00;;;;;;;5.43;2.28;;;17.10;99.90;;;16.30;100.00;96380.84;5092843;28;20402;-72
2022/09/15 06:56:27;;;;;;;4.20;2.50;;;17.00;99.90;;;16.23;100.00;96381.31;5093267;28;20902;-73
2022/09/15 06:58:53;;;;;;;5.25;2.80;;;17.00;99.90;;;16.20;100.00;96388.06;5093289;28;20437;-73
2022/09/15 07:01:22;;;;;;;12.57;3.13;;;17.00;99.90;;;16.17;100.00;96391.34;5093308;28;20394;-72
2022/09/15 07:03:48;;;;;;;5.30;2.85;;;17.00;99.90;;;16.12;100.00;96385.38;5092559;28;20497;-74
2022/09/15 07:06:14;;;;;;;8.82;2.92;;;16.90;99.90;;;16.12;100.00;96388.03;5093113;28;20405;-73
2022/09/15 07:08:42;;;;;;;7.65;2.80;;;16.90;99.90;;;16.10;100.00;96391.00;5092164;28;20410;-73
2022/09/15 07:11:09;;;;;;;13.38;3.80;;;16.90;99.90;;;16.08;100.00;96385.22;5093046;28;20398;-73
2022/09/15 07:13:36;;;;;;;4.80;3.00;;;16.90;99.90;;;16.05;100.00;96388.50;5092635;28;20394;-73
2022/09/15 07:16:05;;;;;;;7.75;3.50;;;16.90;99.90;;;16.03;100.00;96385.34;5091527;28;20783;-73
2022/09/15 07:18:31;;;;;;;11.27;3.80;;;16.80;99.90;;;16.00;100.00;96383.31;5092764;28;20445;-74
2022/09/15 07:20:59;;;;;;;7.28;3.40;;;16.80;99.90;;;16.02;100.00;96388.31;5092876;28;20422;-74
2022/09/15 07:23:25;;;;;;;8.75;3.35;;;16.80;99.90;;;16.00;100.00;96382.50;5096250;28;20504;-75
2022/09/15 07:26:03;;;;;;;4.82;2.90;;;16.80;99.90;;;16.02;100.00;96389.09;5095894;28;20423;-74
2022/09/15 07:28:29;;;;;;;12.73;4.03;;;16.80;99.90;;;16.08;100.00;96393.22;5089529;28;20837;-75
2022/09/15 07:30:54;;;;;;;8.87;3.43;;;16.90;99.90;;;16.14;100.00;96393.84;5100835;28;20490;-75
2022/09/15 07:33:21;;;;;;;9.17;3.57;;;16.90;99.90;;;16.13;100.00;96392.28;5090608;28;20481;-77
2022/09/15 07:35:47;;;;;;;8.15;3.72;;;16.90;99.90;;;16.12;100.00;96391.50;5091014;28;20419;-76
2022/09/15 07:38:12;;;;;;;7.65;3.00;;;16.90;99.90;;;16.14;100.00;96394.66;5111083;28;20408;-78
2022/09/15 07:40:38;;;;;;;6.40;2.97;;;16.90;99.90;;;16.21;100.00;96394.19;5108475;28;20402;-75
2022/09/15 07:43:06;;;;;;;7.90;3.30;;;16.90;99.90;;;16.23;100.00;96405.34;5099080;28;20436;-76
2022/09/15 07:45:34;;;;;;;9.25;3.40;;;17.00;99.90;;;16.17;100.00;96390.56;5096249;28;20415;-75
2022/09/15 07:48:00;;;;;;;7.43;3.42;;;16.90;99.90;;;16.17;100.00;96396.69;5105177;28;20415;-76
2022/09/15 07:50:26;;;;;;;6.38;3.00;;;17.00;99.90;;;16.02;100.00;96397.09;5100006;28;20400;-75
2022/09/15 07:52:54;;;;;;;6.70;3.10;;;16.80;99.90;;;16.01;100.00;96408.13;5092889;28;20910;-75
2022/09/15 07:55:20;;;;;;;9.45;2.95;;;16.80;99.90;;;15.98;100.00;96406.84;5092190;28;20784;-77
2022/09/15 07:57:46;;;;;;;9.03;3.30;;;16.80;99.90;;;16.00;100.00;96411.88;5091916;28;20503;-75
2022/09/15 08:00:14;;;;;;;9.90;3.67;;;16.80;99.90;;;15.98;100.00;96408.72;5100467;28;20421;-78
2022/09/15 08:02:40;;;;;;;8.77;3.60;;;16.80;99.90;;;15.98;100.00;96408.72;5093260;28;20404;-77
2022/09/15 08:05:07;;;;;;;8.45;3.70;;;16.70;99.90;;;15.92;100.00;96417.97;5092369;28;20831;-76
2022/09/15 08:07:33;;;;;;;6.60;3.65;;;16.70;99.90;;;15.94;100.00;96418.47;5101082;22;20793;-80
2022/09/15 08:09:58;;;;;;;8.50;3.80;;;16.70;99.90;;;15.93;100.00;96419.53;5069592;28;20420;-86
2022/09/15 08:12:24;;;;;;;9.13;3.55;;;16.70;99.90;;;15.87;100.00;96425.00;5069917;28;20499;-82
2022/09/15 08:14:50;;;;;;;8.35;3.85;;;16.70;99.90;;;15.87;100.00;96425.00;5071413;28;20976;-86
2022/09/15 08:17:18;;;;;;;13.35;3.95;;;16.70;99.90;;;15.99;100.00;96428.97;5063888;28;20469;-86
2022/09/15 08:19:44;;;;;;;7.90;3.70;;;16.70;99.90;;;16.04;100.00;96429.63;5055189;28;20420;-83
2022/09/15 08:22:10;;;;;;;7.63;3.90;;;16.80;99.90;;;16.09;100.00;96432.16;5055219;28;20506;-79
2022/09/15 08:24:36;;;;;;;8.32;3.80;;;16.80;99.90;;;16.08;100.00;96441.28;5048553;28;20509;-78
2022/09/15 08:27:02;;;;;;;10.82;3.92;;;16.90;99.90;;;16.08;100.00;96445.81;5045559;28;20505;-83
2022/09/15 08:29:28;;;;;;;10.27;4.25;;;16.80;99.90;;;16.08;100.00;96448.50;5048653;28;20413;-80
2022/09/15 08:31:54;;;;;;;11.03;4.30;;;16.80;99.90;;;16.10;100.00;96441.72;5050188;28;20490;-83
2022/09/15 08:34:21;;;;;;;9.80;4.97;;;16.90;99.90;;;16.11;100.00;96439.84;5049682;28;20420;-82
2022/09/15 08:36:47;;;;;;;8.50;4.35;;;16.90;99.90;;;16.05;100.00;96436.53;5047468;28;20420;-79
2022/09/15 08:39:13;;;;;;;10.07;4.70;;;16.80;99.90;;;16.10;100.00;96438.28;5050381;28;20405;-78
2022/09/15 08:41:43;;;;;;;8.25;4.10;;;16.80;99.90;;;16.13;100.00;96437.66;5048826;28;20490;-81
2022/09/15 08:44:25;;;;;;;12.05;4.85;;;16.90;99.90;;;16.22;100.00;96441.94;5044850;28;20429;-79
2022/09/15 08:46:57;;;;;;;10.93;4.68;;;16.90;99.90;;;16.31;100.00;96441.19;5048653;28;20519;-79
2022/09/15 08:49:30;;;;;;;8.95;4.53;;;17.10;99.90;;;16.35;100.00;96442.13;5039603;28;20870;-83
2022/09/15 08:52:05;;;;;;;8.17;3.67;;;17.10;99.90;;;16.45;100.00;96453.31;5045747;28;20437;-85
2022/09/15 08:54:32;;;;;;;6.03;3.40;;;17.20;99.90;;;16.48;100.00;96451.91;5038974;28;20498;-82
2022/09/15 08:57:00;;;;;;;7.47;3.90;;;17.20;99.90;;;16.48;100.00;96457.22;5050334;28;20419;-81
2022/09/15 08:59:32;;;;;;;7.33;3.33;;;17.20;99.90;;;16.57;100.00;96453.50;5050732;28;20497;-80
2022/09/15 09:02:59;;;;;;;6.65;3.55;;;17.30;99.90;;;16.59;100.00;96461.19;5040292;28;20782;-83
2022/09/15 09:05:48;;;;;;;5.22;3.00;;;17.30;99.90;;;16.68;100.00;96466.59;5048890;28;20505;-81
2022/09/15 09:08:49;;;;;;;5.70;2.77;;;17.40;99.90;;;16.80;100.00;96461.41;5036482;28;20416;-89
2022/09/15 09:11:26;;;;;;;5.50;2.72;;;17.50;99.90;;;16.80;100.00;96464.09;5049228;28;21062;-83
2022/09/15 09:14:02;;;;;;;4.90;2.50;;;17.60;99.90;;;16.81;100.00;96460.31;5042389;28;20410;-83
2022/09/15 09:16:55;;;;;;;5.22;2.60;;;17.50;99.90;;;16.85;100.00;96470.06;5040287;28;20936;-83
2022/09/15 09:19:54;;;;;;;4.43;2.10;;;17.60;99.90;;;16.99;100.00;96470.69;5047411;28;21023;-83
2022/09/15 09:22:26;;;;;;;3.50;1.85;;;17.60;99.90;;;17.00;100.00;96476.81;5043296;28;20411;-82
2022/09/15 09:24:55;;;;;;;5.00;2.27;;;17.70;99.90;;;16.98;100.00;96473.69;5037441;28;20405;-86
2022/09/15 09:27:27;;;;;;;3.50;1.90;;;17.70;99.90;;;17.07;100.00;96468.34;5040229;28;20772;-89
2022/09/15 09:30:00;;;;;;;4.43;2.00;;;17.70;99.90;;;17.03;100.00;96473.53;5035543;28;20476;-86
2022/09/15 09:32:34;;;;;;;3.38;1.98;;;17.70;99.90;;;16.99;100.00;96484.06;5032666;28;20416;-83
2022/09/15 09:35:07;;;;;;;5.03;1.77;;;17.70;99.90;;;16.99;100.00;96473.38;5042844;28;20415;-79
2022/09/15 09:37:35;;;;;;;4.40;2.00;;;17.70;99.90;;;16.99;100.00;96472.56;5035672;28;20466;-83
2022/09/15 09:40:01;;;;;;;3.17;2.00;;;17.70;99.90;;;16.98;100.00;96471.81;5042265;28;20488;-83
2022/09/15 09:42:30;;;;;;;2.60;1.80;;;17.70;99.90;;;16.96;100.00;96475.91;5031098;28;20419;-80
2022/09/15 09:44:56;;;;;;;2.88;1.90;;;17.70;99.90;;;16.88;100.00;96474.78;5029891;28;20485;-90
2022/09/15 09:47:28;;;;;;;3.72;1.80;;;17.60;99.90;;;16.85;100.00;96471.94;5030159;28;20801;-80
2022/09/15 09:49:54;;;;;;;3.63;1.95;;;17.60;99.90;;;16.81;100.00;96463.78;5030294;28;20496;-80
2022/09/15 09:52:34;;;;;;;3.58;2.05;;;17.50;99.90;;;16.78;100.00;96484.97;5031184;28;20415;-87
2022/09/15 09:55:01;;;;;;;5.72;2.60;;;17.50;99.90;;;16.70;100.00;96477.72;5029788;28;20410;-85
2022/09/15 09:57:29;;;;;;;2.13;1.90;;;17.50;99.90;;;16.58;100.00;96476.44;5029948;28;20501;-85
2022/09/15 09:59:56;;;;;;;4.07;1.90;;;17.30;99.90;;;16.44;100.00;96473.13;5044755;28;20409;-81
2022/09/15 10:02:24;;;;;;;4.47;2.22;;;17.20;99.90;;;16.34;100.00;96473.38;5039866;28;20500;-83
2022/09/15 10:04:52;;;;;;;5.65;2.30;;;17.10;99.90;;;16.35;100.00;96476.84;5041792;28;21044;-86
2022/09/15 10:07:21;;;;;;;6.93;2.00;;;17.10;99.90;;;16.28;100.00;96471.97;5045995;28;20417;-82
2022/09/15 10:09:53;;;;;;;5.00;1.73;;;17.10;99.90;;;16.22;100.00;96482.00;5049505;28;20405;-83
2022/09/15 10:12:28;;;;;;;4.05;2.00;;;17.00;99.90;;;16.25;100.00;96485.91;5049725;28;20436;-82
2022/09/15 10:14:57;;;;;;;2.42;1.27;;;17.00;99.90;;;16.21;100.00;96491.09;5049430;28;20551;-84
2022/09/15 10:17:25;;;;;;;1.48;1.20;;;17.00;99.90;;;16.13;100.00;96480.38;5049844;28;20436;-81
2022/09/15 10:19:54;;;;;;;3.17;1.27;;;17.00;99.90;;;16.10;100.00;96481.78;5049852;28;21053;-83
2022/09/15 10:22:29;;;;;;;2.67;1.08;;;16.90;99.90;;;16.11;100.00;96494.03;5049800;28;20401;-82